Time;durP1;ratioP1;P1;durP2;ratioP2;P2;SDS_P1;SDS_P2;PMS_P1;PMS_P2;Temp;Humidity;BMP_temperature;BMP_pressure;BME280_temperature;BME280_humidity;BME280_pressure;Samples;Min_cycle;Max_cycle;Signal;HPM_P1;HPM_P2
2022/09/15 00:00:09;;;;;;;1.40;1.40;;;23.90;66.30;;;;;;4995418;28;43411;-75
2022/09/15 00:02:37;;;;;;;1.30;1.30;;;23.80;66.30;;;;;;4992232;28;44012;-76
2022/09/15 00:05:05;;;;;;;1.20;1.20;;;23.80;66.30;;;;;;4989163;28;43760;-76
2022/09/15 00:07:33;;;;;;;1.40;1.40;;;23.80;66.40;;;;;;4997724;28;43535;-74
2022/09/15 00:10:02;;;;;;;1.43;1.43;;;23.70;66.70;;;;;;4995285;28;44087;-76
2022/09/15 00:12:30;;;;;;;1.20;1.20;;;23.70;66.90;;;;;;4998653;28;43461;-75
2022/09/15 00:14:59;;;;;;;1.10;1.10;;;23.80;66.80;;;;;;4990117;28;44522;-77
2022/09/15 00:17:27;;;;;;;1.33;1.33;;;23.90;66.50;;;;;;4997810;28;43463;-76
2022/09/15 00:19:57;;;;;;;1.30;1.30;;;23.90;66.20;;;;;;4974547;28;44026;-76
2022/09/15 00:22:25;;;;;;;1.30;1.30;;;23.90;66.20;;;;;;4988667;28;43430;-75
2022/09/15 00:24:53;;;;;;;1.40;1.40;;;23.90;66.60;;;;;;4999332;28;43943;-76
2022/09/15 00:27:21;;;;;;;1.50;1.50;;;23.80;66.40;;;;;;4987983;28;43479;-77
2022/09/15 00:29:48;;;;;;;1.33;1.33;;;23.90;66.50;;;;;;4994947;28;43449;-77
2022/09/15 00:32:18;;;;;;;1.40;1.30;;;23.80;66.30;;;;;;4972704;28;43904;-75
2022/09/15 00:34:46;;;;;;;1.37;1.37;;;23.80;66.60;;;;;;5000910;28;43592;-76
2022/09/15 00:37:14;;;;;;;1.40;1.40;;;23.70;66.70;;;;;;4980448;28;45111;-76
2022/09/15 00:39:42;;;;;;;1.37;1.37;;;23.70;66.70;;;;;;4979604;28;44092;-76
2022/09/15 00:42:13;;;;;;;1.40;1.37;;;23.70;66.60;;;;;;4991642;28;43437;-76
2022/09/15 00:45:02;;;;;;;1.23;1.23;;;23.70;66.60;;;;;;4996077;28;43854;-76
2022/09/15 00:47:33;;;;;;;1.30;1.30;;;23.70;67.00;;;;;;4987503;28;43546;-75
2022/09/15 00:50:03;;;;;;;1.17;1.17;;;23.60;67.20;;;;;;4993992;28;44074;-76
2022/09/15 00:52:34;;;;;;;1.17;1.17;;;23.70;66.80;;;;;;4992971;28;43406;-73
2022/09/15 00:55:04;;;;;;;1.10;1.10;;;23.90;66.50;;;;;;4980175;28;45457;-75
2022/09/15 00:57:35;;;;;;;1.40;1.40;;;24.00;65.90;;;;;;4989908;28;44003;-73
2022/09/15 01:00:06;;;;;;;1.40;1.40;;;24.10;65.70;;;;;;4995616;28;43558;-76
2022/09/15 01:02:36;;;;;;;1.37;1.37;;;24.10;65.70;;;;;;4969382;28;43542;-76
2022/09/15 01:05:06;;;;;;;1.50;1.50;;;24.00;65.80;;;;;;4992098;28;43925;-76
2022/09/15 01:07:35;;;;;;;1.37;1.37;;;23.90;66.10;;;;;;4993345;28;43438;-74
2022/09/15 01:10:05;;;;;;;1.30;1.30;;;23.90;67.20;;;;;;4978604;28;43624;-75
2022/09/15 01:12:33;;;;;;;1.13;1.13;;;23.80;66.40;;;;;;4979298;28;43497;-74
2022/09/15 01:15:01;;;;;;;1.30;1.30;;;23.80;66.50;;;;;;4973544;28;45828;-74
2022/09/15 01:17:37;;;;;;;1.37;1.37;;;23.70;66.50;;;;;;4976074;28;44469;-74
2022/09/15 01:20:23;;;;;;;1.40;1.40;;;23.70;66.90;;;;;;4992902;28;43436;-76
2022/09/15 01:23:00;;;;;;;1.17;1.17;;;23.70;66.70;;;;;;4990519;28;43513;-76
2022/09/15 01:25:40;;;;;;;1.33;1.33;;;23.90;66.50;;;;;;4991040;28;43832;-76
2022/09/15 01:28:30;;;;;;;1.30;1.30;;;24.00;65.90;;;;;;4991605;28;43536;-76
2022/09/15 01:31:00;;;;;;;1.37;1.27;;;24.10;65.70;;;;;;4997271;28;43438;-76
2022/09/15 01:33:30;;;;;;;1.30;1.30;;;24.10;65.80;;;;;;4998552;28;43601;-77
2022/09/15 01:36:04;;;;;;;1.20;1.20;;;24.00;65.90;;;;;;4994101;28;43834;-76
2022/09/15 01:38:41;;;;;;;1.30;1.30;;;23.90;66.30;;;;;;4988770;28;44951;-75
2022/09/15 01:41:11;;;;;;;1.40;1.30;;;23.80;66.40;;;;;;4990790;28;43427;-75
2022/09/15 01:43:41;;;;;;;1.33;1.33;;;23.80;66.50;;;;;;4989136;28;43386;-76
2022/09/15 01:46:10;;;;;;;1.20;1.20;;;23.70;66.40;;;;;;4997604;28;43605;-76
2022/09/15 01:48:38;;;;;;;1.37;1.37;;;23.70;66.70;;;;;;4990468;28;43478;-75
2022/09/15 01:51:06;;;;;;;1.20;1.20;;;23.70;67.10;;;;;;4973765;28;43461;-75
2022/09/15 01:53:34;;;;;;;1.20;1.20;;;23.70;66.90;;;;;;4989432;28;43492;-75
2022/09/15 01:56:05;;;;;;;1.10;1.10;;;23.70;66.80;;;;;;4977402;28;45306;-76
2022/09/15 01:58:33;;;;;;;1.30;1.30;;;23.60;67.50;;;;;;4993611;28;44021;-76
2022/09/15 02:01:03;;;;;;;1.43;1.43;;;23.60;67.20;;;;;;4972157;28;44258;-76
2022/09/15 02:03:35;;;;;;;1.60;1.60;;;23.70;67.20;;;;;;5000837;28;43368;-75
2022/09/15 02:06:06;;;;;;;1.40;1.40;;;23.80;66.70;;;;;;4981391;28;45330;-75
2022/09/15 02:08:37;;;;;;;1.57;1.57;;;24.00;66.30;;;;;;4990401;28;43410;-74
2022/09/15 02:11:13;;;;;;;1.33;1.33;;;24.10;65.80;;;;;;4995703;28;43518;-75
2022/09/15 02:13:47;;;;;;;1.30;1.30;;;24.10;65.70;;;;;;4992703;28;43394;-76
2022/09/15 02:16:18;;;;;;;1.30;1.30;;;24.00;65.70;;;;;;4989443;28;46123;-76
2022/09/15 02:19:03;;;;;;;1.50;1.40;;;24.00;66.00;;;;;;4985874;28;43881;-75
2022/09/15 02:21:33;;;;;;;1.60;1.60;;;23.90;66.40;;;;;;4989275;28;43453;-74
2022/09/15 02:24:04;;;;;;;1.30;1.30;;;23.90;66.50;;;;;;4990350;28;43451;-76
2022/09/15 02:26:32;;;;;;;1.07;1.07;;;23.80;66.40;;;;;;4975694;28;45626;-74
2022/09/15 02:29:04;;;;;;;1.20;1.20;;;23.70;66.50;;;;;;4974550;28;44710;-75
2022/09/15 02:31:32;;;;;;;1.10;1.10;;;23.70;66.80;;;;;;4991202;28;43489;-75
2022/09/15 02:34:03;;;;;;;1.10;1.10;;;23.70;66.90;;;;;;4977725;28;43555;-76
2022/09/15 02:36:31;;;;;;;1.37;1.37;;;23.70;66.70;;;;;;4974662;28;45420;-74
2022/09/15 02:39:01;;;;;;;1.23;1.23;;;23.70;66.80;;;;;;4991134;28;43800;-75
2022/09/15 02:41:29;;;;;;;1.10;1.10;;;23.60;67.00;;;;;;4971212;28;43507;-76
2022/09/15 02:43:57;;;;;;;1.10;1.10;;;23.60;67.20;;;;;;4993633;28;43509;-76
2022/09/15 02:46:25;;;;;;;1.23;1.23;;;23.70;66.90;;;;;;4994254;28;43924;-75
2022/09/15 02:48:53;;;;;;;1.20;1.20;;;23.90;66.50;;;;;;4985774;28;43405;-75
2022/09/15 02:51:22;;;;;;;1.10;1.10;;;24.00;66.10;;;;;;4990267;28;43396;-76
2022/09/15 02:53:50;;;;;;;1.17;1.17;;;24.00;65.80;;;;;;4987040;28;44498;-75
2022/09/15 02:56:18;;;;;;;1.40;1.40;;;24.00;65.80;;;;;;4975535;28;45635;-74
2022/09/15 02:58:46;;;;;;;1.30;1.30;;;24.00;65.90;;;;;;4994916;28;43505;-76
2022/09/15 03:01:14;;;;;;;1.10;1.10;;;23.90;66.30;;;;;;4994726;28;43477;-76
2022/09/15 03:03:42;;;;;;;1.27;1.27;;;23.80;66.40;;;;;;4995542;28;43838;-75
2022/09/15 03:06:16;;;;;;;1.30;1.30;;;23.80;66.50;;;;;;4997172;28;43625;-76
2022/09/15 03:08:48;;;;;;;1.33;1.33;;;23.80;66.50;;;;;;4995818;28;43900;-75
2022/09/15 03:11:16;;;;;;;1.30;1.30;;;23.70;66.60;;;;;;4990931;28;43974;-74
2022/09/15 03:13:44;;;;;;;1.20;1.20;;;23.70;66.90;;;;;;4991978;28;43425;-76
2022/09/15 03:16:14;;;;;;;1.20;1.20;;;23.70;66.80;;;;;;4992399;28;43803;-76
2022/09/15 03:18:42;;;;;;;1.20;1.20;;;23.70;66.80;;;;;;4989951;28;44982;-76
2022/09/15 03:21:12;;;;;;;1.10;1.10;;;23.60;66.80;;;;;;4991222;28;43479;-75
2022/09/15 03:23:40;;;;;;;1.23;1.23;;;23.60;67.10;;;;;;4988487;28;43990;-74
2022/09/15 03:26:09;;;;;;;1.30;1.30;;;23.60;67.10;;;;;;4978191;28;45965;-74
2022/09/15 03:28:37;;;;;;;1.10;1.10;;;23.70;66.80;;;;;;4995447;28;43422;-76
2022/09/15 03:31:05;;;;;;;1.30;1.30;;;23.90;66.40;;;;;;4996271;28;43544;-77
2022/09/15 03:33:34;;;;;;;1.00;1.00;;;24.00;65.90;;;;;;4999237;28;43416;-76
2022/09/15 03:36:02;;;;;;;1.10;1.10;;;24.00;65.80;;;;;;4999970;28;43882;-76
2022/09/15 03:38:30;;;;;;;1.17;1.17;;;24.00;65.80;;;;;;4996609;28;43418;-75
2022/09/15 03:41:00;;;;;;;1.40;1.30;;;23.90;65.90;;;;;;4981527;28;43417;-76
2022/09/15 03:43:29;;;;;;;1.83;1.40;;;23.80;66.30;;;;;;4981177;28;43601;-76
2022/09/15 03:45:57;;;;;;;1.57;1.43;;;23.80;66.40;;;;;;4989630;28;45060;-76
2022/09/15 03:48:26;;;;;;;1.40;1.40;;;23.70;66.40;;;;;;4988656;28;43418;-76
2022/09/15 03:50:53;;;;;;;3.83;2.30;;;23.70;66.50;;;;;;5001164;28;43562;-76
2022/09/15 03:53:21;;;;;;;4.80;3.23;;;23.60;66.80;;;;;;4995435;28;43433;-76
2022/09/15 03:55:49;;;;;;;10.37;4.20;;;23.70;67.00;;;;;;4990800;28;43788;-76
2022/09/15 03:58:17;;;;;;;9.33;3.80;;;23.70;66.70;;;;;;4996874;28;43496;-76
2022/09/15 04:00:47;;;;;;;10.53;4.43;;;23.90;66.40;;;;;;4989056;28;43884;-77
2022/09/15 04:03:14;;;;;;;12.07;4.20;;;24.00;66.10;;;;;;4983104;28;43435;-76
2022/09/15 04:05:42;;;;;;;15.40;5.30;;;24.00;65.90;;;;;;4992583;28;43617;-76
2022/09/15 04:08:12;;;;;;;14.63;4.80;;;24.00;66.00;;;;;;4979444;28;44613;-76
2022/09/15 04:10:40;;;;;;;13.17;5.27;;;23.90;66.10;;;;;;4996474;28;43428;-76
2022/09/15 04:13:08;;;;;;;13.60;5.30;;;23.80;66.40;;;;;;4999374;28;43461;-74
2022/09/15 04:15:36;;;;;;;15.83;5.50;;;23.80;66.60;;;;;;4987385;28;44026;-76
2022/09/15 04:18:05;;;;;;;16.17;5.60;;;23.80;66.50;;;;;;4989578;28;43397;-77
2022/09/15 04:20:34;;;;;;;11.87;4.73;;;23.70;66.50;;;;;;4987252;28;43417;-73
2022/09/15 04:23:01;;;;;;;14.20;6.20;;;23.70;66.80;;;;;;4995503;28;43533;-76
2022/09/15 04:25:29;;;;;;;17.63;6.20;;;23.60;66.90;;;;;;4970393;28;46025;-74
2022/09/15 04:27:57;;;;;;;14.83;6.57;;;23.60;66.90;;;;;;4995040;28;43529;-76
2022/09/15 04:30:25;;;;;;;11.70;5.17;;;23.70;66.90;;;;;;4997334;28;43885;-75
2022/09/15 04:32:53;;;;;;;19.27;6.50;;;23.60;66.90;;;;;;4993694;28;43390;-74
2022/09/15 04:35:22;;;;;;;19.17;6.57;;;23.60;67.10;;;;;;4992450;28;43960;-76
2022/09/15 04:37:50;;;;;;;14.03;6.53;;;23.60;67.20;;;;;;4996380;28;43494;-76
2022/09/15 04:40:18;;;;;;;19.00;7.20;;;23.70;67.10;;;;;;4979038;28;43943;-76
2022/09/15 04:42:47;;;;;;;19.80;7.23;;;23.80;66.70;;;;;;4998989;28;43433;-73
2022/09/15 04:45:15;;;;;;;16.70;6.67;;;23.90;66.20;;;;;;4992783;28;43883;-76
2022/09/15 04:47:43;;;;;;;18.43;6.73;;;24.00;66.00;;;;;;4994723;28;43625;-75
2022/09/15 04:50:11;;;;;;;15.57;6.87;;;24.00;65.90;;;;;;4987775;28;43378;-75
2022/09/15 04:52:41;;;;;;;14.20;6.57;;;24.00;66.00;;;;;;4979820;28;44061;-75
2022/09/15 04:55:09;;;;;;;18.00;7.10;;;23.90;66.20;;;;;;4998390;28;43600;-76
2022/09/15 04:57:37;;;;;;;16.73;6.47;;;23.80;66.50;;;;;;5003381;28;43437;-76
2022/09/15 05:00:06;;;;;;;14.60;6.70;;;23.80;66.60;;;;;;4974274;28;43594;-75
2022/09/15 05:02:34;;;;;;;13.93;6.53;;;23.70;66.50;;;;;;4974442;28;43430;-76
2022/09/15 05:05:02;;;;;;;12.97;6.27;;;23.70;66.70;;;;;;4973770;28;45884;-76
2022/09/15 05:07:30;;;;;;;16.10;6.83;;;23.70;67.00;;;;;;4988275;28;44053;-75
2022/09/15 05:09:59;;;;;;;15.10;6.27;;;23.60;66.90;;;;;;5000936;28;43383;-77
2022/09/15 05:12:27;;;;;;;16.40;7.50;;;23.70;67.00;;;;;;4995536;28;43417;-76
2022/09/15 05:14:55;;;;;;;12.37;5.70;;;23.60;66.80;;;;;;4995985;28;43988;-74
2022/09/15 05:17:22;;;;;;;15.03;6.70;;;23.60;66.90;;;;;;4989318;28;44084;-76
2022/09/15 05:19:53;;;;;;;14.43;6.80;;;23.60;67.30;;;;;;4997076;28;43502;-76
2022/09/15 05:22:21;;;;;;;14.97;6.67;;;23.60;67.20;;;;;;4987414;28;43718;-75
2022/09/15 05:24:49;;;;;;;16.07;6.47;;;23.70;66.80;;;;;;5003834;28;43816;-76
2022/09/15 05:27:18;;;;;;;13.70;6.70;;;23.90;66.40;;;;;;4993321;28;43964;-77
2022/09/15 05:29:46;;;;;;;14.17;6.37;;;24.00;65.90;;;;;;4997850;28;43906;-75
2022/09/15 05:32:14;;;;;;;13.20;6.43;;;24.00;65.80;;;;;;4972248;28;43465;-75
2022/09/15 05:34:42;;;;;;;9.37;5.70;;;24.00;65.80;;;;;;4988622;28;45688;-76
2022/09/15 05:37:10;;;;;;;14.93;6.40;;;23.90;66.00;;;;;;4993394;28;43529;-77
2022/09/15 05:39:38;;;;;;;11.80;5.87;;;23.80;66.30;;;;;;4988038;28;43938;-77
2022/09/15 05:42:06;;;;;;;14.13;6.70;;;23.80;66.60;;;;;;4979458;28;43424;-76
2022/09/15 05:44:35;;;;;;;10.13;5.60;;;23.70;66.50;;;;;;4993429;28;43605;-77
2022/09/15 05:47:04;;;;;;;11.17;5.80;;;23.70;66.60;;;;;;4986911;28;43556;-75
2022/09/15 05:49:32;;;;;;;11.83;6.17;;;23.60;66.70;;;;;;4981067;28;43393;-74
2022/09/15 05:52:00;;;;;;;10.00;5.67;;;23.60;67.00;;;;;;4993324;28;43420;-75
2022/09/15 05:54:28;;;;;;;11.10;5.93;;;23.70;66.90;;;;;;4989800;28;43883;-76
2022/09/15 05:56:56;;;;;;;9.97;5.30;;;23.80;66.50;;;;;;4988734;28;43391;-75
2022/09/15 05:59:24;;;;;;;12.67;5.80;;;24.00;66.10;;;;;;4978647;28;43467;-75
2022/09/15 06:01:53;;;;;;;12.27;5.93;;;24.00;65.80;;;;;;4981126;28;43923;-76
2022/09/15 06:04:21;;;;;;;10.37;5.60;;;24.00;65.80;;;;;;4975815;28;45486;-76
2022/09/15 06:06:50;;;;;;;9.03;5.40;;;23.90;65.80;;;;;;4989498;28;43973;-75
2022/09/15 06:09:17;;;;;;;10.93;5.80;;;23.80;66.10;;;;;;4993644;28;43426;-74
2022/09/15 06:11:45;;;;;;;9.23;5.50;;;23.80;66.40;;;;;;5000272;28;43375;-76
2022/09/15 06:14:13;;;;;;;8.30;5.47;;;23.80;66.50;;;;;;4987569;28;43658;-75
2022/09/15 06:16:41;;;;;;;9.77;5.10;;;23.70;66.40;;;;;;4973517;28;44271;-77
2022/09/15 06:19:11;;;;;;;12.77;6.17;;;23.70;66.70;;;;;;4991529;28;43494;-75
2022/09/15 06:21:38;;;;;;;12.37;5.87;;;23.60;66.90;;;;;;5002861;28;43466;-75
2022/09/15 06:24:06;;;;;;;9.07;4.97;;;23.60;67.00;;;;;;4987600;28;43982;-75
2022/09/15 06:26:34;;;;;;;10.53;5.40;;;23.60;66.90;;;;;;4988122;28;43870;-77
2022/09/15 06:29:03;;;;;;;8.23;5.20;;;23.60;66.90;;;;;;4996549;28;43449;-74
2022/09/15 06:31:32;;;;;;;9.33;5.23;;;23.60;67.00;;;;;;4993449;28;43873;-73
2022/09/15 06:34:01;;;;;;;10.40;5.07;;;23.60;67.20;;;;;;4992955;28;44519;-76
2022/09/15 06:36:30;;;;;;;9.60;5.47;;;23.60;67.20;;;;;;4996719;28;43402;-74
2022/09/15 06:38:58;;;;;;;9.93;5.73;;;23.70;67.60;;;;;;4975873;28;43460;-75
2022/09/15 06:41:27;;;;;;;7.87;5.13;;;23.90;66.40;;;;;;4978061;28;43601;-77
2022/09/15 06:44:14;;;;;;;6.80;5.00;;;24.00;65.90;;;;;;4979900;28;44043;-76
2022/09/15 06:46:42;;;;;;;7.17;4.90;;;24.00;65.70;;;;;;4997595;28;43528;-75
2022/09/15 06:49:10;;;;;;;9.03;5.27;;;24.00;65.80;;;;;;4991954;28;43533;-76
2022/09/15 06:51:39;;;;;;;6.93;5.07;;;23.90;66.00;;;;;;4996416;28;43391;-75
2022/09/15 06:54:07;;;;;;;8.20;5.30;;;23.80;66.30;;;;;;4982001;28;46254;-75
2022/09/15 06:56:35;;;;;;;6.23;4.80;;;23.80;66.40;;;;;;4989635;28;43406;-75
2022/09/15 06:59:05;;;;;;;6.90;5.30;;;23.70;66.40;;;;;;4995635;28;43445;-76
2022/09/15 07:01:33;;;;;;;7.73;5.37;;;23.70;66.50;;;;;;4993656;28;44063;-76
2022/09/15 07:04:01;;;;;;;8.27;5.30;;;23.60;66.70;;;;;;4976106;28;45391;-77
2022/09/15 07:06:29;;;;;;;7.43;5.30;;;23.60;66.90;;;;;;4972814;28;44332;-74
2022/09/15 07:08:59;;;;;;;6.93;4.80;;;23.60;66.90;;;;;;5002528;28;43407;-74
2022/09/15 07:11:27;;;;;;;7.73;4.60;;;23.60;66.80;;;;;;4983466;28;43441;-76
2022/09/15 07:13:55;;;;;;;5.40;4.67;;;23.60;66.90;;;;;;4995689;28;44508;-76
2022/09/15 07:16:24;;;;;;;6.77;4.73;;;23.50;67.10;;;;;;4991728;28;43501;-75
2022/09/15 07:18:53;;;;;;;6.87;5.10;;;23.60;67.00;;;;;;4976043;28;43342;-75
2022/09/15 07:21:21;;;;;;;6.40;4.70;;;23.70;66.70;;;;;;4993862;28;43466;-74
2022/09/15 07:23:49;;;;;;;7.50;5.40;;;23.80;66.40;;;;;;4981985;28;45836;-75
2022/09/15 07:26:21;;;;;;;5.17;4.50;;;23.80;66.20;;;;;;4973124;28;43955;-75
2022/09/15 07:28:50;;;;;;;6.80;4.83;;;23.80;66.20;;;;;;4991180;28;43598;-76
2022/09/15 07:31:19;;;;;;;6.60;4.70;;;23.70;66.40;;;;;;4973436;28;43477;-76
2022/09/15 07:33:47;;;;;;;5.30;4.80;;;23.80;66.50;;;;;;4994977;28;43943;-76
2022/09/15 07:36:14;;;;;;;5.60;4.43;;;23.70;66.40;;;;;;4994784;28;43434;-76
2022/09/15 07:38:43;;;;;;;4.37;3.97;;;23.70;66.40;;;;;;4994607;28;43446;-77
2022/09/15 07:41:12;;;;;;;5.97;5.03;;;23.70;66.60;;;;;;4993755;28;43496;-76
2022/09/15 07:43:45;;;;;;;9.63;5.00;;;23.60;66.90;;;;;;4975063;28;45705;-76
2022/09/15 07:46:13;;;;;;;5.00;4.50;;;23.60;66.80;;;;;;4977168;28;44680;-75
2022/09/15 07:48:43;;;;;;;6.03;4.57;;;23.60;66.70;;;;;;4972921;28;44510;-76
2022/09/15 07:51:11;;;;;;;5.43;4.60;;;23.60;66.80;;;;;;4988985;28;43428;-75
2022/09/15 07:53:39;;;;;;;6.20;4.77;;;23.60;67.10;;;;;;4990697;28;43608;-75
2022/09/15 07:56:07;;;;;;;5.97;4.70;;;23.60;67.10;;;;;;4995817;28;44258;-75
2022/09/15 07:58:35;;;;;;;6.27;4.43;;;23.60;66.80;;;;;;4998709;28;43412;-75
2022/09/15 08:01:05;;;;;;;6.40;4.83;;;23.80;66.40;;;;;;4993179;28;43437;-77
2022/09/15 08:03:33;;;;;;;5.27;4.50;;;24.00;66.00;;;;;;4996490;28;43867;-74
2022/09/15 08:06:01;;;;;;;5.00;4.13;;;24.00;65.70;;;;;;4992264;28;43469;-74
2022/09/15 08:08:29;;;;;;;5.73;4.20;;;24.00;65.60;;;;;;4993481;28;43513;-74
2022/09/15 08:10:57;;;;;;;6.57;4.30;;;23.90;65.70;;;;;;4995520;28;43402;-76
2022/09/15 08:13:25;;;;;;;4.30;3.90;;;23.90;66.10;;;;;;4991141;28;43645;-76
2022/09/15 08:15:53;;;;;;;4.77;3.90;;;23.80;66.30;;;;;;4980556;28;44273;-75
2022/09/15 08:18:22;;;;;;;5.43;4.17;;;23.70;66.30;;;;;;4994630;28;43402;-75
2022/09/15 08:20:50;;;;;;;5.53;4.23;;;23.70;66.40;;;;;;4991640;28;43741;-77
2022/09/15 08:23:18;;;;;;;5.03;4.43;;;23.70;66.50;;;;;;4994359;28;43715;-76
2022/09/15 08:25:46;;;;;;;5.77;4.30;;;23.60;66.80;;;;;;4974436;28;43425;-76
2022/09/15 08:28:14;;;;;;;6.83;4.77;;;23.60;66.90;;;;;;4994190;28;43434;-76
2022/09/15 08:30:42;;;;;;;4.40;4.00;;;23.60;66.80;;;;;;4972439;28;43414;-76
2022/09/15 08:33:10;;;;;;;4.87;4.47;;;23.60;66.90;;;;;;4993134;28;43670;-74
2022/09/15 08:35:39;;;;;;;4.33;3.93;;;23.50;66.90;;;;;;5004434;28;43457;-76
2022/09/15 08:38:07;;;;;;;5.53;4.77;;;23.50;67.10;;;;;;4996305;28;44010;-76
2022/09/15 08:40:36;;;;;;;4.73;4.20;;;23.60;66.90;;;;;;4988523;28;43955;-75
2022/09/15 08:43:08;;;;;;;4.57;4.17;;;23.70;66.50;;;;;;4988183;28;43922;-74
2022/09/15 08:45:40;;;;;;;4.50;4.10;;;23.90;66.00;;;;;;4997788;28;43478;-77
2022/09/15 08:48:08;;;;;;;4.20;3.80;;;24.00;65.80;;;;;;4988960;28;43492;-75
2022/09/15 08:50:39;;;;;;;4.53;4.10;;;24.00;65.70;;;;;;4995201;28;43409;-75
2022/09/15 08:53:09;;;;;;;4.33;3.93;;;23.90;65.80;;;;;;4989397;28;43797;-75
2022/09/15 08:55:40;;;;;;;4.67;4.17;;;23.80;66.10;;;;;;4991249;28;43461;-75
2022/09/15 08:58:09;;;;;;;4.77;4.30;;;23.70;66.30;;;;;;4989727;28;43401;-75
2022/09/15 09:00:37;;;;;;;4.27;3.83;;;23.70;66.40;;;;;;4975727;28;43534;-76
2022/09/15 09:03:18;;;;;;;4.23;3.83;;;23.70;66.40;;;;;;4993944;28;43609;-75
2022/09/15 09:05:51;;;;;;;4.03;3.67;;;23.60;66.50;;;;;;4987380;28;43512;-76
2022/09/15 09:08:30;;;;;;;5.27;4.00;;;23.60;66.90;;;;;;4993412;28;43492;-77
2022/09/15 09:11:00;;;;;;;4.47;4.00;;;23.60;66.80;;;;;;4988421;28;43347;-76
2022/09/15 09:13:33;;;;;;;3.80;3.50;;;23.60;66.80;;;;;;4991473;28;44071;-77
2022/09/15 09:16:09;;;;;;;4.43;4.03;;;23.50;66.80;;;;;;4990646;28;43790;-76
2022/09/15 09:18:56;;;;;;;4.07;3.77;;;23.50;67.10;;;;;;4983805;28;43424;-77
2022/09/15 09:21:28;;;;;;;4.10;3.70;;;23.50;67.00;;;;;;4970037;28;43507;-77
2022/09/15 09:24:01;;;;;;;4.93;3.90;;;23.70;66.70;;;;;;4998632;28;43638;-77
2022/09/15 09:26:29;;;;;;;4.27;3.80;;;23.80;66.10;;;;;;4987697;28;43457;-76
2022/09/15 09:28:59;;;;;;;3.77;3.47;;;23.90;65.80;;;;;;4994304;28;43503;-76
2022/09/15 09:31:27;;;;;;;4.47;3.60;;;23.90;65.70;;;;;;4993297;28;43600;-76
2022/09/15 09:33:58;;;;;;;4.20;3.80;;;23.90;65.80;;;;;;4993218;28;43764;-74
2022/09/15 09:36:28;;;;;;;4.30;3.90;;;23.80;66.10;;;;;;4987574;28;43472;-74
2022/09/15 09:38:57;;;;;;;4.10;3.80;;;23.70;66.40;;;;;;4987693;28;43397;-75
2022/09/15 09:41:34;;;;;;;3.30;3.07;;;23.70;66.40;;;;;;4988553;28;44044;-77
2022/09/15 09:44:02;;;;;;;3.77;3.53;;;23.70;66.50;;;;;;4988241;28;45589;-76
2022/09/15 09:46:30;;;;;;;3.47;3.27;;;23.60;66.60;;;;;;4974957;28;44924;-74
2022/09/15 09:49:01;;;;;;;3.43;3.23;;;23.60;66.90;;;;;;4998265;28;43906;-77
2022/09/15 09:51:32;;;;;;;3.30;3.10;;;23.60;66.90;;;;;;4973013;28;43409;-74
2022/09/15 09:54:10;;;;;;;3.57;3.37;;;23.60;66.80;;;;;;4988704;28;43872;-76
2022/09/15 09:56:38;;;;;;;3.57;3.27;;;23.50;66.80;;;;;;4999151;28;43417;-77
2022/09/15 09:59:08;;;;;;;4.17;3.87;;;23.50;67.00;;;;;;4989226;28;43433;-74
2022/09/15 10:01:36;;;;;;;3.67;3.43;;;23.50;67.10;;;;;;4988072;28;44009;-77
2022/09/15 10:04:16;;;;;;;3.60;3.40;;;23.50;67.00;;;;;;4978095;28;45748;-75
2022/09/15 10:06:45;;;;;;;3.53;3.23;;;23.70;66.60;;;;;;4992964;28;43464;-76
2022/09/15 10:09:15;;;;;;;3.17;2.97;;;23.80;66.70;;;;;;5001017;28;43421;-76
2022/09/15 10:11:45;;;;;;;3.57;3.30;;;23.90;65.80;;;;;;4985929;28;43522;-76
2022/09/15 10:14:20;;;;;;;3.40;3.23;;;23.90;65.70;;;;;;4993404;28;43660;-77
2022/09/15 10:16:59;;;;;;;3.73;3.43;;;23.90;66.00;;;;;;4996001;28;43559;-76
2022/09/15 10:19:27;;;;;;;3.30;3.10;;;23.80;66.20;;;;;;5002654;28;43540;-75
2022/09/15 10:21:56;;;;;;;3.10;3.00;;;23.70;66.40;;;;;;5000699;28;43452;-76
2022/09/15 10:24:31;;;;;;;3.30;3.10;;;23.70;66.40;;;;;;4991908;28;43632;-77
2022/09/15 10:27:06;;;;;;;3.53;3.23;;;23.60;66.50;;;;;;4989980;28;43393;-76
2022/09/15 10:29:37;;;;;;;3.03;2.83;;;23.60;66.60;;;;;;4976609;28;43477;-76
2022/09/15 10:32:26;;;;;;;3.07;2.87;;;23.60;66.90;;;;;;4993942;28;43565;-76
2022/09/15 10:35:01;;;;;;;3.23;3.03;;;23.60;66.80;;;;;;4995752;28;43612;-75
2022/09/15 10:37:34;;;;;;;3.10;2.90;;;23.60;66.90;;;;;;4997911;28;43419;-74
2022/09/15 10:40:09;;;;;;;3.30;3.10;;;23.60;66.90;;;;;;4976754;28;43546;-76
2022/09/15 10:42:48;;;;;;;2.87;2.77;;;23.50;67.00;;;;;;4996981;28;43457;-74
2022/09/15 10:45:26;;;;;;;3.07;2.87;;;23.60;67.20;;;;;;4990862;28;43687;-75
2022/09/15 10:48:22;;;;;;;2.67;2.57;;;23.60;66.80;;;;;;4991848;28;43551;-75
2022/09/15 10:50:54;;;;;;;3.00;2.80;;;23.80;66.40;;;;;;4987900;28;43504;-74
2022/09/15 10:53:32;;;;;;;3.20;3.00;;;23.90;65.90;;;;;;4997865;28;43424;-75
2022/09/15 10:56:03;;;;;;;3.00;2.70;;;23.90;65.70;;;;;;4990299;28;43648;-75
2022/09/15 10:58:46;;;;;;;3.30;3.10;;;23.80;65.90;;;;;;4996427;28;43727;-73
2022/09/15 11:01:24;;;;;;;2.90;2.80;;;23.80;66.10;;;;;;4990966;28;43851;-77
2022/09/15 11:04:17;;;;;;;3.07;2.90;;;23.70;66.40;;;;;;4998574;28;43433;-76
2022/09/15 11:06:47;;;;;;;2.90;2.80;;;23.70;66.50;;;;;;4973816;28;45971;-74
2022/09/15 11:09:19;;;;;;;2.63;2.53;;;23.70;66.70;;;;;;4990285;28;43385;-75
2022/09/15 11:11:53;;;;;;;2.77;2.67;;;23.60;66.60;;;;;;4979483;28;43531;-76
2022/09/15 11:14:32;;;;;;;3.20;3.00;;;23.60;67.60;;;;;;4992468;28;43531;-75
2022/09/15 11:17:07;;;;;;;2.90;2.70;;;23.60;66.80;;;;;;4971499;28;45276;-77
2022/09/15 11:19:43;;;;;;;2.80;2.70;;;23.70;66.50;;;;;;4992452;28;43404;-75
2022/09/15 11:22:13;;;;;;;2.70;2.60;;;23.80;66.10;;;;;;4989482;28;43525;-74
2022/09/15 11:24:44;;;;;;;3.00;2.80;;;23.90;65.90;;;;;;4989699;28;43380;-74
2022/09/15 11:27:16;;;;;;;2.70;2.60;;;23.90;65.80;;;;;;4974943;28;45443;-75
2022/09/15 11:29:58;;;;;;;2.70;2.60;;;23.80;66.00;;;;;;4977645;28;44325;-77
2022/09/15 11:32:27;;;;;;;2.80;2.60;;;23.70;66.90;;;;;;4974389;28;43372;-76
2022/09/15 11:34:58;;;;;;;2.83;2.73;;;23.70;66.40;;;;;;4996221;28;43521;-76
2022/09/15 11:37:29;;;;;;;2.80;2.70;;;23.70;66.40;;;;;;4976338;28;43800;-75
2022/09/15 11:40:00;;;;;;;2.47;2.37;;;23.60;66.50;;;;;;4994841;28;43438;-75
2022/09/15 11:42:32;;;;;;;2.67;2.57;;;23.60;66.60;;;;;;4990866;28;43732;-77
2022/09/15 11:45:00;;;;;;;2.80;2.70;;;23.60;66.90;;;;;;4993984;28;43418;-77
2022/09/15 11:47:29;;;;;;;2.57;2.47;;;23.60;66.80;;;;;;4983322;28;45261;-76
2022/09/15 11:50:01;;;;;;;2.47;2.37;;;23.60;66.80;;;;;;4996415;28;43497;-75
2022/09/15 11:52:47;;;;;;;2.40;2.30;;;23.50;66.70;;;;;;4998269;28;43924;-76
2022/09/15 11:55:21;;;;;;;2.50;2.40;;;23.50;66.90;;;;;;4978151;28;43812;-75
2022/09/15 11:57:52;;;;;;;2.33;2.27;;;23.50;67.00;;;;;;4992781;28;43613;-75
2022/09/15 12:00:20;;;;;;;2.50;2.40;;;23.60;66.60;;;;;;4990713;28;43441;-75
2022/09/15 12:02:51;;;;;;;2.70;2.50;;;23.70;65.60;;;;;;4977126;28;44001;-76
2022/09/15 12:05:22;;;;;;;3.27;2.87;;;23.80;65.30;;;;;;4976588;28;43421;-76
2022/09/15 12:07:53;;;;;;;2.43;2.33;;;23.90;65.20;;;;;;4970615;28;44066;-77
2022/09/15 12:10:25;;;;;;;2.47;2.37;;;23.90;65.20;;;;;;4978920;28;44641;-75
2022/09/15 12:12:52;;;;;;;2.37;2.20;;;23.80;65.40;;;;;;4990609;28;43456;-75
2022/09/15 12:15:26;;;;;;;2.63;2.53;;;23.70;65.70;;;;;;4996982;28;43586;-75
2022/09/15 12:18:00;;;;;;;2.30;2.20;;;23.70;65.90;;;;;;4991079;28;43974;-77
2022/09/15 12:20:44;;;;;;;2.30;2.20;;;23.70;66.30;;;;;;4975112;28;44589;-75
2022/09/15 12:23:18;;;;;;;2.60;2.50;;;23.60;66.10;;;;;;4998410;28;43480;-75
2022/09/15 12:25:58;;;;;;;2.07;2.07;;;23.60;66.30;;;;;;5003362;28;43586;-75
2022/09/15 12:28:27;;;;;;;2.20;2.10;;;23.50;66.40;;;;;;4995845;28;43624;-75
2022/09/15 12:31:14;;;;;;;2.57;2.47;;;23.50;66.60;;;;;;4979906;28;44711;-75
2022/09/15 12:33:45;;;;;;;2.30;2.20;;;23.50;66.70;;;;;;4996144;28;44048;-73
2022/09/15 12:36:36;;;;;;;2.40;2.30;;;23.50;66.80;;;;;;4996609;28;43478;-76
2022/09/15 12:39:05;;;;;;;2.50;2.40;;;23.40;66.80;;;;;;4987972;28;43630;-76
2022/09/15 12:41:35;;;;;;;2.03;1.90;;;23.40;66.80;;;;;;4994571;28;43338;-73
2022/09/15 12:44:14;;;;;;;2.30;2.23;;;23.40;66.90;;;;;;4990753;28;43429;-76
2022/09/15 12:46:50;;;;;;;2.03;2.00;;;23.40;67.40;;;;;;4995737;28;43465;-76
2022/09/15 12:49:18;;;;;;;2.10;2.00;;;23.50;67.20;;;;;;4988085;28;44033;-75
2022/09/15 12:51:48;;;;;;;2.33;2.27;;;23.60;66.80;;;;;;4987704;28;43955;-76
2022/09/15 12:54:21;;;;;;;2.50;2.40;;;23.80;66.30;;;;;;4992418;28;43880;-75
2022/09/15 12:56:52;;;;;;;2.13;2.03;;;23.90;65.60;;;;;;4971960;28;43536;-76
2022/09/15 12:59:20;;;;;;;1.80;1.80;;;24.20;65.00;;;;;;4995157;28;43613;-75
2022/09/15 13:01:48;;;;;;;2.20;2.10;;;24.40;64.40;;;;;;4991801;28;44090;-75